Time;durP1;ratioP1;P1;durP2;ratioP2;P2;SDS_P1;SDS_P2;PMS_P1;PMS_P2;Temp;Humidity;BMP_temperature;BMP_pressure;BME280_temperature;BME280_humidity;BME280_pressure;Samples;Min_cycle;Max_cycle;Signal;HPM_P1;HPM_P2
2023/10/09 00:01:17;;;;;;;5.10;3.58;;;;;;;22.03;59.43;101073.44;10214300;28;96799;-79
2023/10/09 00:06:32;;;;;;;5.40;3.78;;;;;;;21.94;59.83;101072.28;10244401;28;97028;-79
2023/10/09 00:11:41;;;;;;;4.55;3.45;;;;;;;21.77;60.66;101064.63;10254240;28;96652;-80
2023/10/09 00:16:47;;;;;;;6.00;3.70;;;;;;;21.62;61.02;101062.19;10253923;28;96782;-80
2023/10/09 00:21:55;;;;;;;5.50;3.38;;;;;;;21.51;61.73;101060.28;10253707;28;96770;-79
2023/10/09 00:27:11;;;;;;;5.47;3.70;;;;;;;21.38;63.19;101056.78;10254431;28;97403;-80
2023/10/09 00:32:22;;;;;;;5.75;3.63;;;;;;;21.34;62.76;101050.81;10254643;28;96898;-79
2023/10/09 00:37:33;;;;;;;5.75;3.33;;;;;;;21.24;62.74;101048.88;10253507;28;97002;-80
2023/10/09 00:42:38;;;;;;;7.60;3.58;;;;;;;21.24;62.41;101049.72;10253731;28;97652;-80
2023/10/09 00:47:43;;;;;;;4.95;3.55;;;;;;;21.29;61.26;101055.59;10252188;28;96758;-79
2023/10/09 00:52:51;;;;;;;5.23;3.27;;;;;;;21.40;60.35;101054.84;10252807;28;96854;-79
2023/10/09 00:57:59;;;;;;;4.20;2.78;;;;;;;21.62;58.96;101047.00;10252800;28;96833;-80
2023/10/09 01:03:22;;;;;;;5.82;3.60;;;;;;;21.65;58.90;101056.63;10228408;28;96663;-80
2023/10/09 01:08:30;;;;;;;4.25;2.88;;;;;;;21.65;58.81;101057.47;10252736;28;97603;-80
2023/10/09 01:13:52;;;;;;;6.00;3.50;;;;;;;21.67;58.49;101055.53;10251981;28;96712;-79
2023/10/09 01:18:57;;;;;;;6.10;3.83;;;;;;;21.40;59.78;101054.84;10253098;28;96624;-79
2023/10/09 01:24:08;;;;;;;5.00;3.53;;;;;;;21.16;61.57;101057.44;10253105;28;96778;-79
2023/10/09 01:29:16;;;;;;;5.28;3.65;;;;;;;21.07;61.97;101057.22;10252255;28;96737;-80
2023/10/09 01:34:23;;;;;;;5.45;3.10;;;;;;;20.93;62.74;101054.66;10252414;28;96720;-79
2023/10/09 01:39:29;;;;;;;5.00;3.40;;;;;;;20.87;62.96;101058.59;10251079;28;97096;-79
2023/10/09 01:44:35;;;;;;;5.25;3.53;;;;;;;20.76;63.54;101052.25;10251624;28;96840;-79
2023/10/09 01:49:43;;;;;;;4.38;3.47;;;;;;;20.66;63.99;101057.41;10252124;28;96723;-80
2023/10/09 01:54:53;;;;;;;4.57;3.40;;;;;;;20.57;64.35;101049.16;10251527;28;96698;-80
2023/10/09 01:59:57;;;;;;;5.25;3.53;;;;;;;20.38;65.05;101049.53;10251328;28;97168;-79
2023/10/09 02:05:09;;;;;;;4.95;3.42;;;;;;;20.28;65.46;101046.59;10254468;28;96818;-79
2023/10/09 02:10:32;;;;;;;6.05;3.58;;;;;;;20.23;65.57;101043.38;10258566;28;96779;-80
2023/10/09 02:15:54;;;;;;;6.65;3.63;;;;;;;20.15;66.35;101047.53;10258358;28;96675;-80
2023/10/09 02:21:20;;;;;;;5.97;3.60;;;;;;;20.12;66.90;101047.69;10258021;28;96706;-79
2023/10/09 02:26:32;;;;;;;4.75;3.72;;;;;;;20.12;65.98;101048.56;10258431;28;97446;-80
2023/10/09 02:31:40;;;;;;;6.40;3.88;;;;;;;20.07;65.96;101039.13;10255910;28;97378;-79
2023/10/09 02:36:49;;;;;;;5.70;3.45;;;;;;;19.92;66.43;101042.81;10257335;28;96655;-79
2023/10/09 02:41:58;;;;;;;6.07;3.97;;;;;;;19.85;67.08;101038.84;10255767;28;96831;-80
2023/10/09 02:47:17;;;;;;;5.20;3.70;;;;;;;19.86;66.52;101038.72;10256964;28;96735;-79
2023/10/09 02:52:25;;;;;;;5.80;3.67;;;;;;;19.90;66.43;101047.41;10256146;28;97315;-80
2023/10/09 02:57:36;;;;;;;5.82;3.42;;;;;;;20.02;65.23;101046.59;10257368;28;96950;-79
2023/10/09 03:02:41;;;;;;;4.85;3.33;;;;;;;20.08;64.69;101040.88;10239615;28;96772;-79
2023/10/09 03:07:45;;;;;;;5.07;3.42;;;;;;;20.19;63.87;101049.00;10247623;28;96788;-79
2023/10/09 03:12:53;;;;;;;5.00;3.38;;;;;;;20.01;64.76;101043.06;10215663;28;97578;-80
2023/10/09 03:17:56;;;;;;;4.85;3.05;;;;;;;19.96;64.94;101055.03;10247909;28;96692;-81
2023/10/09 03:23:01;;;;;;;4.72;2.90;;;;;;;20.19;63.23;101051.69;10220928;28;96731;-81
2023/10/09 03:28:06;;;;;;;4.60;3.13;;;;;;;20.42;62.35;101050.19;10215629;28;97070;-80
2023/10/09 03:33:11;;;;;;;4.10;2.92;;;;;;;20.47;61.82;101051.59;10248811;28;97482;-80
2023/10/09 03:38:17;;;;;;;4.53;3.28;;;;;;;20.36;62.27;101057.66;10296073;28;96963;-80
2023/10/09 03:43:31;;;;;;;6.60;3.00;;;;;;;20.45;61.79;101063.31;10302568;22;97166;-80
2023/10/09 03:48:43;;;;;;;5.28;3.40;;;;;;;20.37;61.88;101058.50;10295878;28;96769;-80
2023/10/09 03:53:55;;;;;;;6.05;3.15;;;;;;;20.61;60.45;101058.66;10295130;28;96741;-80
2023/10/09 03:59:21;;;;;;;5.25;2.97;;;;;;;20.72;59.76;101061.47;10296180;28;98991;-80
2023/10/09 04:04:28;;;;;;;4.10;2.88;;;;;;;20.85;59.22;101062.31;10294748;28;96943;-80
2023/10/09 04:09:39;;;;;;;3.90;2.80;;;;;;;20.86;58.69;101064.91;10295332;28;96814;-81
2023/10/09 04:14:54;;;;;;;5.20;3.25;;;;;;;20.84;58.14;101060.63;10293992;28;96648;-81
2023/10/09 04:26:00;;;;;;;5.20;3.42;;;;;;;20.77;58.41;101073.56;10294530;28;97305;-80
2023/10/09 04:31:20;;;;;;;5.45;3.38;;;;;;;20.65;59.26;101082.44;10294104;28;96855;-80
2023/10/09 04:36:37;;;;;;;5.55;3.65;;;;;;;20.39;60.59;101075.31;10294088;28;96781;-80
2023/10/09 04:42:18;;;;;;;3.70;2.70;;;;;;;20.23;61.67;101086.13;10293967;28;96715;-81
2023/10/09 04:47:28;;;;;;;5.30;3.40;;;;;;;20.35;60.02;101080.00;10253330;28;97317;-80
2023/10/09 04:52:54;;;;;;;5.10;3.28;;;;;;;20.50;58.95;101090.66;10254030;28;96660;-81
2023/10/09 04:58:09;;;;;;;7.90;3.50;;;;;;;20.65;58.22;101089.59;10292428;28;96703;-81
2023/10/09 05:09:07;;;;;;;;;;;;;;;;;;;;;
2023/10/09 05:14:15;;;;;;;5.35;3.28;;;;;;;20.70;57.86;101093.69;10293476;28;97244;-81
2023/10/09 05:19:54;;;;;;;4.30;2.78;;;;;;;20.62;58.01;101101.34;10293750;28;97580;-81
2023/10/09 05:25:03;;;;;;;3.42;2.58;;;;;;;20.64;57.95;101098.56;10292880;28;96665;-80
2023/10/09 05:30:33;;;;;;;5.18;3.17;;;;;;;20.63;57.83;101105.75;10293487;28;96941;-81
2023/10/09 05:36:04;;;;;;;4.63;3.13;;;;;;;20.66;57.79;101107.34;10292718;28;97031;-80
2023/10/09 05:46:48;;;;;;;6.18;3.00;;;;;;;20.53;57.94;101117.16;10278879;28;96685;-81
2023/10/09 05:52:27;;;;;;;4.30;3.00;;;;;;;20.49;58.03;101111.16;10293880;28;96905;-81
2023/10/09 06:08:15;;;;;;;4.15;3.13;;;;;;;20.50;57.72;101106.69;10299347;28;96986;-81
2023/10/09 06:13:45;;;;;;;4.93;3.60;;;;;;;20.52;57.25;101115.44;10298597;28;97183;-81
2023/10/09 06:19:07;;;;;;;4.95;3.17;;;;;;;20.51;57.46;101116.41;10298244;28;97428;-81
2023/10/09 06:24:16;;;;;;;5.88;3.22;;;;;;;20.49;57.29;101121.00;10298490;28;96749;-81
2023/10/09 06:45:54;;;;;;;6.10;3.40;;;;;;;20.31;57.73;101126.59;12295230;22;15293488;-79
2023/10/09 06:51:55;;;;;;;;;;;;;;;;;;;;;
2023/10/09 07:03:05;;;;;;;4.53;3.17;;;;;;;20.31;57.63;101129.28;12942241;22;99463;-79
2023/10/09 07:19:35;;;;;;;6.63;4.03;;;;;;;20.28;57.55;101145.50;12941492;22;102650;-80
2023/10/09 07:31:39;;;;;;;5.72;3.05;;;;;;;21.52;54.96;101145.03;12745177;22;98097;-81
2023/10/09 07:37:19;;;;;;;3.65;2.78;;;;;;;22.48;52.47;101155.84;12546254;23;99128;-81
2023/10/09 07:42:52;;;;;;;3.58;2.90;;;;;;;23.20;50.94;101161.03;12937629;22;98714;-81
2023/10/09 07:48:38;;;;;;;4.75;3.22;;;;;;;23.85;48.89;101166.63;12927505;22;99374;-81
2023/10/09 07:54:31;;;;;;;4.65;3.08;;;;;;;24.58;47.36;101173.09;12927172;22;99631;-82
2023/10/09 08:05:33;;;;;;;3.72;2.90;;;;;;;26.09;44.99;101165.31;12727343;22;99880;-82
2023/10/09 08:17:21;;;;;;;;;;;;;;;;;;;;;
2023/10/09 08:23:33;;;;;;;3.60;2.88;;;;;;;27.55;40.19;101175.06;12916236;22;98442;-82
2023/10/09 08:28:54;;;;;;;3.92;2.70;;;;;;;28.41;39.75;101183.69;12927463;22;98202;-82
2023/10/09 08:34:48;;;;;;;4.63;3.00;;;;;;;29.07;37.27;101176.94;12926635;22;100224;-82
2023/10/09 08:40:23;;;;;;;;;;;;;;;;;;;;;
2023/10/09 08:46:17;;;;;;;3.50;2.92;;;;;;;29.93;35.19;101186.91;12926769;22;99041;-82
2023/10/09 08:51:35;;;;;;;3.53;2.70;;;;;;;30.47;35.19;101177.47;12926449;22;99341;-83
2023/10/09 08:57:17;;;;;;;3.85;2.78;;;;;;;29.06;37.17;101193.38;12921923;22;98635;-82
2023/10/09 09:02:47;;;;;;;4.65;3.20;;;;;;;27.12;39.74;101194.50;12926841;22;98844;-81
2023/10/09 09:08:17;;;;;;;5.32;3.05;;;;;;;26.34;40.91;101190.97;12718748;22;99044;-82
2023/10/09 09:14:17;;;;;;;;;;;;;;;;;;;;;
2023/10/09 09:26:11;;;;;;;3.55;2.53;;;;;;;30.72;34.03;101175.66;12924225;22;99079;-82
2023/10/09 09:37:01;;;;;;;4.65;3.13;;;;;;;31.64;32.37;101174.28;12926576;22;99075;-83
2023/10/09 09:48:54;;;;;;;4.35;3.13;;;;;;;33.48;29.06;101172.41;12926526;22;99364;-83
2023/10/09 09:54:26;;;;;;;3.75;2.60;;;;;;;34.08;28.24;101161.31;12750349;22;99129;-83
2023/10/09 10:16:35;;;;;;;4.45;2.42;;;;;;;33.87;27.26;101144.81;12836051;22;4182566;-82
2023/10/09 10:22:02;;;;;;;3.67;2.45;;;;;;;33.75;27.33;101138.13;12729284;22;96841;-82
2023/10/09 10:33:54;;;;;;;3.00;2.10;;;;;;;33.69;26.74;101133.44;12578600;22;97444;-81
2023/10/09 10:40:10;;;;;;;;;;;;;;;;;;;;;
2023/10/09 10:45:34;;;;;;;3.00;2.08;;;;;;;35.53;24.68;101124.31;12679736;23;96889;-82
2023/10/09 10:51:01;;;;;;;2.30;2.00;;;;;;;35.34;24.75;101118.69;12681757;22;97147;-81
2023/10/09 10:56:34;;;;;;;3.70;2.13;;;;;;;34.95;24.21;101111.03;12877379;22;97314;-82
2023/10/09 11:01:53;;;;;;;2.53;1.88;;;;;;;34.22;24.22;101103.06;12878066;22;96612;-82
2023/10/09 11:07:15;;;;;;;2.70;1.90;;;;;;;34.13;24.33;101087.81;12878271;22;96661;-82
2023/10/09 11:12:47;;;;;;;;;;;;;;;;;;;;;
2023/10/09 11:18:17;;;;;;;2.65;2.00;;;;;;;34.63;23.71;101075.97;12863668;22;96723;-81
2023/10/09 11:23:47;;;;;;;3.53;2.00;;;;;;;33.74;23.88;101065.44;12863896;22;96600;-81
2023/10/09 11:29:52;;;;;;;2.97;2.05;;;;;;;34.74;23.17;101063.66;12784739;22;97721;-82
2023/10/09 11:35:34;;;;;;;3.50;1.80;;;;;;;34.64;23.09;101047.59;12649048;22;97268;-82
2023/10/09 11:46:58;;;;;;;2.17;1.85;;;;;;;35.64;22.15;101038.88;12845605;22;96822;-81
2023/10/09 11:52:35;;;;;;;4.10;1.88;;;;;;;36.04;21.60;101025.31;12543974;23;97074;-81
2023/10/09 11:57:40;;;;;;;2.75;1.83;;;;;;;36.07;21.05;101033.13;12859235;22;97044;-81
2023/10/09 12:02:49;;;;;;;5.35;2.03;;;;;;;35.92;21.02;101010.53;12863030;22;97271;-82
2023/10/09 12:07:57;;;;;;;3.63;2.05;;;;;;;35.82;20.94;101005.44;12863394;22;96702;-82
2023/10/09 12:13:04;;;;;;;2.95;2.00;;;;;;;36.04;20.72;101000.66;12862895;22;96669;-82
2023/10/09 12:18:18;;;;;;;2.70;1.90;;;;;;;36.01;20.58;100988.25;12863038;22;96618;-81
2023/10/09 12:23:27;;;;;;;2.30;1.60;;;;;;;36.84;20.22;100984.94;12862782;22;97331;-82
2023/10/09 12:28:33;;;;;;;2.35;1.70;;;;;;;36.07;19.67;100979.16;12862076;22;97295;-81
2023/10/09 12:33:40;;;;;;;3.42;1.92;;;;;;;36.24;19.60;100968.66;12863329;22;96818;-82
2023/10/09 12:38:46;;;;;;;2.20;1.60;;;;;;;36.64;19.04;100963.00;12863054;22;96957;-82
2023/10/09 12:43:57;;;;;;;1.90;1.40;;;;;;;37.10;18.81;100940.13;12862862;22;97022;-82
2023/10/09 12:49:03;;;;;;;3.20;1.20;;;;;;;37.50;18.82;100939.78;12863287;22;96924;-81
2023/10/09 12:54:07;;;;;;;2.40;1.45;;;;;;;37.04;18.24;100935.50;12862592;22;96600;-81
2023/10/09 12:59:15;;;;;;;1.92;1.55;;;;;;;37.26;18.79;100929.50;12862212;22;96605;-82
2023/10/09 13:04:23;;;;;;;2.85;1.50;;;;;;;37.05;18.18;100918.00;12862833;22;97026;-81
2023/10/09 13:10:08;;;;;;;2.08;1.75;;;;;;;37.12;18.51;100903.19;12862670;22;96728;-82
2023/10/09 13:21:55;;;;;;;;;;;;;;;;;;;;;
2023/10/09 13:27:21;;;;;;;4.72;1.90;;;;;;;37.94;17.72;100883.97;12858600;22;97348;-82
2023/10/09 13:32:51;;;;;;;;;;;;;;;;;;;;;
2023/10/09 13:38:30;;;;;;;2.17;1.40;;;;;;;38.36;17.68;100874.97;12855973;22;96862;-81
2023/10/09 13:44:05;;;;;;;2.22;1.70;;;;;;;37.90;17.91;100870.91;12861689;22;97100;-81
2023/10/09 13:49:29;;;;;;;2.22;1.52;;;;;;;38.63;17.18;100859.06;12862115;22;96891;-81
2023/10/09 13:54:50;;;;;;;2.10;1.80;;;;;;;38.55;18.16;100860.19;12861307;22;96644;-81
2023/10/09 14:00:33;;;;;;;2.63;1.67;;;;;;;38.81;17.70;100861.81;12861498;22;97470;-82
2023/10/09 14:06:44;;;;;;;;;;;;;;;;;;;;;
2023/10/09 14:12:13;;;;;;;1.48;1.25;;;;;;;38.45;17.71;100846.13;12861503;22;96650;-82
2023/10/09 14:17:37;;;;;;;2.78;1.77;;;;;;;39.31;16.81;100832.19;12860187;22;97335;-81
2023/10/09 14:23:20;;;;;;;1.65;1.35;;;;;;;39.02;17.52;100833.84;12861283;22;96679;-81
2023/10/09 14:34:35;;;;;;;2.25;1.45;;;;;;;38.82;17.42;100825.00;12845605;22;97390;-81
2023/10/09 14:39:41;;;;;;;2.47;1.77;;;;;;;38.12;17.71;100815.31;12860944;22;96599;-81
2023/10/09 14:45:17;;;;;;;1.98;1.40;;;;;;;37.92;18.10;100822.88;12824097;22;96929;-82
2023/10/09 14:50:38;;;;;;;3.17;1.60;;;;;;;38.01;17.95;100813.28;12862635;22;96652;-81
2023/10/09 14:55:48;;;;;;;2.05;1.67;;;;;;;37.72;17.76;100806.53;12863583;22;96897;-82
2023/10/09 15:01:06;;;;;;;1.90;1.50;;;;;;;37.49;18.17;100799.94;12862975;22;96572;-81
2023/10/09 15:06:16;;;;;;;1.77;1.42;;;;;;;37.70;18.06;100796.81;12863303;22;96604;-81
2023/10/09 15:11:29;;;;;;;2.55;1.48;;;;;;;37.30;18.60;100793.47;12863306;22;96529;-81
2023/10/09 15:17:15;;;;;;;2.22;1.48;;;;;;;37.32;18.13;100796.00;12861148;22;96655;-80
2023/10/09 15:22:35;;;;;;;2.80;1.70;;;;;;;37.21;18.56;100789.28;12863430;22;96889;-81
2023/10/09 15:27:50;;;;;;;1.75;1.45;;;;;;;37.62;17.99;100786.97;12863015;22;96895;-80
2023/10/09 15:32:56;;;;;;;2.92;1.55;;;;;;;38.19;17.76;100782.25;12863306;22;97019;-80
2023/10/09 15:38:15;;;;;;;2.97;1.70;;;;;;;37.96;18.20;100784.78;12863275;22;96606;-80
2023/10/09 15:43:25;;;;;;;3.13;1.70;;;;;;;37.29;17.83;100791.81;12863073;22;96928;-80
2023/10/09 15:48:46;;;;;;;2.70;1.58;;;;;;;36.87;18.32;100780.59;12863288;22;96598;-80
2023/10/09 15:53:58;;;;;;;3.17;1.80;;;;;;;36.24;18.20;100779.53;12863111;22;97569;-80
2023/10/09 15:59:11;;;;;;;2.08;1.38;;;;;;;35.98;18.57;100772.16;12863143;22;97247;-81
2023/10/09 16:04:20;;;;;;;2.97;1.75;;;;;;;35.83;19.24;100768.75;12863112;22;96620;-81
2023/10/09 16:09:31;;;;;;;3.17;1.55;;;;;;;35.12;20.16;100770.34;12862089;22;96782;-80
2023/10/09 16:14:47;;;;;;;1.92;1.40;;;;;;;34.70;20.24;100769.75;12750657;22;97071;-80
2023/10/09 16:20:21;;;;;;;2.30;1.27;;;;;;;34.47;20.49;100768.16;12736872;22;96577;-80
2023/10/09 16:25:33;;;;;;;3.88;1.70;;;;;;;34.17;20.74;100768.56;12714410;22;97196;-80
2023/10/09 16:30:44;;;;;;;2.40;1.30;;;;;;;33.95;20.96;100772.41;12736639;22;96720;-80
2023/10/09 16:36:12;;;;;;;3.80;1.55;;;;;;;33.73;21.13;100774.28;12734715;22;96660;-80
2023/10/09 16:41:26;;;;;;;2.95;1.58;;;;;;;33.68;21.33;100768.59;12735279;22;96990;-80
2023/10/09 16:46:36;;;;;;;2.10;1.30;;;;;;;33.57;21.42;100774.59;12737257;22;96774;-80
2023/10/09 16:51:47;;;;;;;2.53;1.40;;;;;;;33.29;22.87;100769.06;12735990;22;96566;-80
2023/10/09 16:56:57;;;;;;;2.60;1.60;;;;;;;32.81;24.18;100772.44;12737625;22;97657;-80
2023/10/09 17:02:24;;;;;;;2.38;1.50;;;;;;;32.68;25.37;100777.72;12734575;22;96973;-80
2023/10/09 17:07:51;;;;;;;2.45;1.77;;;;;;;32.47;26.84;100780.38;12734374;22;97150;-80
2023/10/09 17:13:22;;;;;;;3.10;1.55;;;;;;;32.22;27.37;100778.94;12734058;22;97544;-79
2023/10/09 17:18:31;;;;;;;2.15;1.50;;;;;;;31.79;28.96;100776.97;12736761;22;96499;-80
2023/10/09 17:23:42;;;;;;;4.65;1.55;;;;;;;31.50;29.58;100791.31;12736066;22;96630;-80
2023/10/09 17:28:51;;;;;;;3.05;1.67;;;;;;;31.12;30.27;100798.53;12736447;22;96671;-80
2023/10/09 17:34:02;;;;;;;8.20;2.83;;;;;;;30.67;30.98;100793.00;12736505;22;96631;-80
2023/10/09 17:39:26;;;;;;;6.78;2.33;;;;;;;30.37;31.62;100795.63;12736615;22;97457;-80
2023/10/09 17:44:41;;;;;;;3.80;2.13;;;;;;;29.99;32.22;100808.03;12735680;22;96560;-80
2023/10/09 17:49:51;;;;;;;2.53;1.75;;;;;;;29.78;32.08;100811.28;12736082;22;97020;-80
2023/10/09 17:55:06;;;;;;;2.83;1.50;;;;;;;29.58;32.00;100817.22;12735283;22;96561;-80
2023/10/09 18:00:21;;;;;;;4.20;1.58;;;;;;;29.42;32.35;100815.31;12735754;22;97547;-79
2023/10/09 18:05:33;;;;;;;4.20;1.80;;;;;;;29.21;32.63;100817.63;12735649;22;96535;-80
2023/10/09 18:10:50;;;;;;;2.92;1.48;;;;;;;28.89;33.18;100829.22;12735559;22;97138;-80
2023/10/09 18:16:07;;;;;;;4.38;1.77;;;;;;;28.80;33.15;100829.34;12735910;22;97583;-80
2023/10/09 18:21:24;;;;;;;2.53;1.70;;;;;;;28.60;33.26;100839.56;12735329;22;97558;-79
2023/10/09 18:26:34;;;;;;;2.30;1.50;;;;;;;28.42;33.53;100846.06;12737643;22;96718;-80
2023/10/09 18:31:40;;;;;;;2.83;2.03;;;;;;;28.00;34.53;100859.47;12738492;22;96604;-79
2023/10/09 18:36:47;;;;;;;2.55;1.40;;;;;;;27.99;34.21;100871.31;12738081;22;97244;-79
2023/10/09 18:41:56;;;;;;;2.58;1.63;;;;;;;27.67;35.55;100871.00;12737985;22;97180;-79
2023/10/09 18:46:59;;;;;;;2.35;1.70;;;;;;;27.45;36.06;100872.28;12737931;22;96992;-79
2023/10/09 18:52:07;;;;;;;;;;;;;;;27.12;37.55;100882.88;12737907;22;96547;-79
2023/10/09 18:57:14;;;;;;;2.03;1.40;;;;;;;26.97;35.96;100891.44;12738415;22;96964;-79
2023/10/09 19:02:21;;;;;;;2.92;1.75;;;;;;;26.89;36.24;100885.97;12737829;22;96685;-79
2023/10/09 19:07:27;;;;;;;2.70;1.80;;;;;;;26.80;37.00;100889.53;12737412;22;96556;-79
2023/10/09 19:12:35;;;;;;;3.25;1.90;;;;;;;26.95;36.71;100898.88;12735134;22;97132;-79
2023/10/09 19:17:52;;;;;;;;;;;;;;;;;;;;;
2023/10/09 19:22:59;;;;;;;3.90;2.10;;;;;;;26.93;36.32;100902.72;12735127;22;97135;-79
2023/10/09 19:28:07;;;;;;;3.22;1.80;;;;;;;26.81;36.84;100901.22;12734916;22;96605;-79
2023/10/09 19:33:13;;;;;;;3.30;2.20;;;;;;;26.70;37.23;100914.88;12733892;22;97171;-79
2023/10/09 19:38:19;;;;;;;3.05;1.85;;;;;;;26.45;37.49;100919.09;12735018;22;96706;-79
2023/10/09 19:43:30;;;;;;;3.95;1.80;;;;;;;26.37;38.01;100923.53;12734858;22;96578;-79
2023/10/09 19:48:36;;;;;;;3.72;1.90;;;;;;;26.07;38.58;100920.97;12735059;22;96554;-79
2023/10/09 19:53:40;;;;;;;2.80;1.98;;;;;;;26.07;38.40;100929.06;12734781;22;96663;-79
2023/10/09 19:58:46;;;;;;;;;;;;;;;25.82;39.58;100936.72;12735631;22;96608;-79
2023/10/09 20:03:51;;;;;;;2.42;1.77;;;;;;;25.86;38.98;100937.31;12735181;22;96884;-79
2023/10/09 20:08:55;;;;;;;4.82;2.03;;;;;;;25.82;39.39;100934.03;12735943;22;97182;-79
2023/10/09 20:14:00;;;;;;;2.13;1.90;;;;;;;25.76;39.14;100931.88;12734535;22;96642;-79
2023/10/09 20:19:08;;;;;;;2.92;1.80;;;;;;;25.88;38.70;100941.53;12734897;22;96653;-79
2023/10/09 20:24:16;;;;;;;3.53;2.10;;;;;;;25.79;39.09;100944.25;12733527;22;96918;-79
2023/10/09 20:29:20;;;;;;;3.45;1.90;;;;;;;25.50;39.93;100949.56;12734960;22;97433;-79
2023/10/09 20:34:24;;;;;;;3.03;1.60;;;;;;;25.75;39.10;100950.91;12734075;22;96713;-79
2023/10/09 20:39:27;;;;;;;4.60;1.83;;;;;;;25.14;39.88;100954.72;12734819;22;96542;-79
2023/10/09 20:44:32;;;;;;;3.53;1.87;;;;;;;24.95;40.18;100951.91;12734606;22;97402;-79
2023/10/09 20:49:36;;;;;;;3.22;2.20;;;;;;;24.86;40.31;100958.09;12733931;22;97296;-79
2023/10/09 20:54:40;;;;;;;3.47;2.10;;;;;;;24.85;40.75;100970.69;12734485;22;97745;-79
2023/10/09 20:59:47;;;;;;;2.80;1.97;;;;;;;25.09;40.25;100960.50;12735417;22;96649;-79
2023/10/09 21:04:52;;;;;;;3.80;2.20;;;;;;;24.92;40.74;100963.78;12734558;22;97078;-79
2023/10/09 21:09:57;;;;;;;3.25;1.90;;;;;;;25.06;40.43;100954.53;12734474;22;97322;-79
2023/10/09 21:15:01;;;;;;;4.35;2.05;;;;;;;24.97;40.46;100964.25;12732860;22;97205;-79
2023/10/09 21:20:09;;;;;;;3.17;1.88;;;;;;;24.73;40.85;100959.19;12734557;22;97056;-80
2023/10/09 21:25:14;;;;;;;4.45;2.60;;;;;;;24.57;41.84;100958.78;12733767;22;97238;-80
2023/10/09 21:30:20;;;;;;;2.58;1.83;;;;;;;24.66;41.96;100970.59;12734214;22;97197;-79
2023/10/09 21:35:27;;;;;;;2.58;1.90;;;;;;;24.48;42.67;100973.03;12733844;22;96590;-79
2023/10/09 21:40:33;;;;;;;2.60;2.00;;;;;;;24.36;43.47;100970.56;12733784;22;96922;-79
2023/10/09 21:45:44;;;;;;;4.20;2.15;;;;;;;24.03;45.48;100965.31;12733802;22;96833;-80
2023/10/09 21:50:50;;;;;;;3.22;2.22;;;;;;;23.90;45.55;100960.09;12734355;22;96893;-79
2023/10/09 21:56:03;;;;;;;3.58;2.40;;;;;;;23.53;48.87;100958.69;12733874;22;96645;-80
2023/10/09 22:01:12;;;;;;;4.32;2.40;;;;;;;23.33;49.45;100959.47;12733660;22;96867;-79
2023/10/09 22:06:15;;;;;;;3.28;2.05;;;;;;;23.20;48.71;100964.16;12732374;22;97199;-80
2023/10/09 22:11:19;;;;;;;6.43;2.25;;;;;;;23.07;49.70;100977.69;12733096;22;96826;-80
2023/10/09 22:16:25;;;;;;;3.87;2.27;;;;;;;23.02;49.76;100976.34;12733435;22;97058;-80
2023/10/09 22:21:28;;;;;;;3.47;2.25;;;;;;;22.98;49.82;100977.56;12732630;22;96844;-79
2023/10/09 22:26:32;;;;;;;3.20;2.00;;;;;;;22.78;50.83;100987.22;12732943;22;97022;-80
2023/10/09 22:31:38;;;;;;;3.37;2.20;;;;;;;22.69;51.64;100985.19;12733061;22;97282;-80
2023/10/09 22:36:48;;;;;;;3.95;2.72;;;;;;;22.69;51.83;100985.19;12732894;22;96643;-80
2023/10/09 22:41:54;;;;;;;4.35;2.45;;;;;;;22.83;50.12;100978.78;12733766;22;97050;-80
2023/10/09 22:47:06;;;;;;;4.05;2.53;;;;;;;22.89;49.89;100981.00;12732702;22;96792;-80
2023/10/09 22:52:13;;;;;;;3.85;1.92;;;;;;;22.72;50.40;100971.53;12732412;22;96992;-79
2023/10/09 22:57:20;;;;;;;4.07;2.40;;;;;;;22.81;50.19;100976.22;12731176;22;96528;-79
2023/10/09 23:07:58;;;;;;;3.50;2.30;;;;;;;22.58;51.02;100971.75;12731317;22;96627;-79
2023/10/09 23:13:15;;;;;;;3.20;2.08;;;;;;;22.48;51.08;100968.94;12734749;22;96955;-79
2023/10/09 23:23:42;;;;;;;4.35;2.38;;;;;;;22.12;53.39;100974.44;12687819;22;96692;-80
2023/10/09 23:28:50;;;;;;;3.35;2.60;;;;;;;21.99;53.81;100970.09;12735170;22;96625;-80
2023/10/09 23:34:11;;;;;;;3.00;1.90;;;;;;;21.93;54.27;100957.16;12735740;22;96742;-79
2023/10/09 23:44:47;;;;;;;4.15;2.78;;;;;;;21.69;54.88;100949.13;12735137;22;96856;-79
2023/10/09 23:49:53;;;;;;;3.22;2.40;;;;;;;21.91;52.66;100957.28;12733659;22;97066;-80
2023/10/09 23:55:06;;;;;;;5.57;2.42;;;;;;;21.83;53.34;100953.47;12734677;22;97452;-79
